createdAt,value
2022-11-30T00:01:18.968Z,37.87
2022-11-30T00:03:46.287Z,32.50
2022-11-30T00:06:16.127Z,33.97
2022-11-30T00:08:43.672Z,33.63
2022-11-30T00:11:17.710Z,35.70
2022-11-30T00:13:45.195Z,35.53
2022-11-30T00:16:12.389Z,37.20
2022-11-30T00:18:39.588Z,34.47
2022-11-30T00:21:10.211Z,33.23
2022-11-30T00:23:42.410Z,37.77
2022-11-30T00:26:12.013Z,35.27
2022-11-30T00:28:40.184Z,38.60
2022-11-30T00:31:12.208Z,38.83
2022-11-30T00:33:39.856Z,36.27
2022-11-30T00:36:10.897Z,41.80
2022-11-30T00:38:38.298Z,39.00
2022-11-30T00:41:05.655Z,42.40
2022-11-30T00:43:32.974Z,40.37
2022-11-30T00:46:00.187Z,40.30
2022-11-30T00:48:27.619Z,40.10
2022-11-30T00:50:54.785Z,38.33
2022-11-30T00:53:22.126Z,41.07
2022-11-30T00:55:49.742Z,41.17
2022-11-30T00:58:17.183Z,44.10
2022-11-30T01:00:44.686Z,42.63
2022-11-30T01:03:12.022Z,40.97
2022-11-30T01:05:39.673Z,41.47
2022-11-30T01:08:09.058Z,35.83
2022-11-30T01:10:38.600Z,41.87
2022-11-30T01:13:06.600Z,39.97
2022-11-30T01:15:43.827Z,38.70
2022-11-30T01:18:11.350Z,37.70
2022-11-30T01:20:44.630Z,36.17
2022-11-30T01:23:12.095Z,36.87
2022-11-30T01:25:39.426Z,37.85
2022-11-30T01:28:08.740Z,36.57
2022-11-30T01:30:35.901Z,39.17
2022-11-30T01:33:04.559Z,37.83
2022-11-30T01:35:31.775Z,38.23
2022-11-30T01:37:58.930Z,38.90
2022-11-30T01:40:26.071Z,41.00
2022-11-30T01:42:53.233Z,38.63
2022-11-30T01:45:20.394Z,38.40
2022-11-30T01:47:52.488Z,40.97
2022-11-30T01:50:30.557Z,43.67
2022-11-30T01:52:58.112Z,42.30
2022-11-30T01:55:34.817Z,45.57
2022-11-30T01:58:23.712Z,44.13
2022-11-30T02:00:51.079Z,42.47
2022-11-30T02:03:33.235Z,44.10
2022-11-30T02:06:00.966Z,44.57
2022-11-30T02:08:30.389Z,48.67
2022-11-30T02:11:04.587Z,46.93
2022-11-30T02:13:58.451Z,42.30
2022-11-30T02:16:49.625Z,46.40
2022-11-30T02:19:35.523Z,45.17
2022-11-30T02:22:17.959Z,44.27
2022-11-30T02:25:15.840Z,47.70
2022-11-30T02:28:10.198Z,41.97
2022-11-30T02:30:43.676Z,42.23
2022-11-30T02:33:15.339Z,42.93
2022-11-30T02:35:50.332Z,41.67
2022-11-30T02:38:23.870Z,41.87
2022-11-30T02:40:51.104Z,40.93
2022-11-30T02:43:21.531Z,40.27
2022-11-30T02:45:58.549Z,39.63
2022-11-30T02:48:49.306Z,37.97
2022-11-30T02:51:20.089Z,35.70
2022-11-30T02:53:48.594Z,33.27
2022-11-30T02:56:17.354Z,33.30
2022-11-30T02:58:44.603Z,33.10
2022-11-30T03:01:11.810Z,34.10
2022-11-30T03:03:39.110Z,35.57
2022-11-30T03:06:06.426Z,32.97
2022-11-30T03:08:33.571Z,31.37
2022-11-30T03:11:05.202Z,31.97
2022-11-30T03:13:33.556Z,30.10
2022-11-30T03:16:12.537Z,30.93
2022-11-30T03:18:40.536Z,32.00
2022-11-30T03:21:09.671Z,32.10
2022-11-30T03:23:37.870Z,35.07
2022-11-30T03:26:06.647Z,33.10
2022-11-30T03:28:34.425Z,31.17
2022-11-30T03:31:01.825Z,35.50
2022-11-30T03:33:29.020Z,34.23
2022-11-30T03:36:01.258Z,32.57
2022-11-30T03:38:28.997Z,33.27
2022-11-30T03:41:04.184Z,33.83
2022-11-30T03:43:31.414Z,32.93
2022-11-30T03:45:59.051Z,32.20
2022-11-30T03:48:26.392Z,33.37
2022-11-30T03:50:53.662Z,35.20
2022-11-30T03:53:22.694Z,37.27
2022-11-30T03:55:57.905Z,35.50
2022-11-30T03:58:25.769Z,36.77
2022-11-30T04:01:08.621Z,36.70
2022-11-30T04:03:36.145Z,39.13
2022-11-30T04:06:05.344Z,36.30
2022-11-30T04:08:33.220Z,35.10
2022-11-30T04:11:02.577Z,38.60
2022-11-30T04:13:31.392Z,39.83
2022-11-30T04:15:59.085Z,41.83
2022-11-30T04:18:27.677Z,41.80
2022-11-30T04:20:56.459Z,40.33
2022-11-30T04:23:25.207Z,42.17
2022-11-30T04:25:52.804Z,39.40
2022-11-30T04:28:20.436Z,39.10
2022-11-30T04:30:47.909Z,41.17
2022-11-30T04:33:16.446Z,39.87
2022-11-30T04:35:50.777Z,36.77
2022-11-30T04:38:18.038Z,39.37
2022-11-30T04:40:45.872Z,39.73
2022-11-30T04:43:13.377Z,41.10
2022-11-30T04:45:40.876Z,41.27
2022-11-30T04:48:08.614Z,41.67
2022-11-30T04:50:36.175Z,41.10
2022-11-30T04:53:03.739Z,42.13
2022-11-30T04:55:31.308Z,39.77
2022-11-30T04:57:58.628Z,40.80
2022-11-30T05:00:26.011Z,40.97
2022-11-30T05:02:55.083Z,41.30
2022-11-30T05:05:22.582Z,43.27
2022-11-30T05:07:59.613Z,41.20
2022-11-30T05:10:28.162Z,37.27
2022-11-30T05:12:56.224Z,37.70
2022-11-30T05:15:23.419Z,37.37
2022-11-30T05:17:50.600Z,38.40
2022-11-30T05:20:17.775Z,40.43
2022-11-30T05:22:44.925Z,37.13
2022-11-30T05:25:12.443Z,36.03
2022-11-30T05:27:39.619Z,39.07
2022-11-30T05:30:07.988Z,35.47
2022-11-30T05:32:35.250Z,39.10
2022-11-30T05:35:02.437Z,34.53
2022-11-30T05:37:29.777Z,32.70
2022-11-30T05:39:56.938Z,33.43
2022-11-30T05:42:24.165Z,36.13
2022-11-30T05:44:51.363Z,36.53
2022-11-30T05:47:18.663Z,37.27
2022-11-30T05:49:45.893Z,34.93
2022-11-30T05:52:13.050Z,32.77
2022-11-30T05:54:40.202Z,32.27
2022-11-30T05:57:07.377Z,34.03
2022-11-30T05:59:34.540Z,33.67
2022-11-30T06:02:01.832Z,35.43
2022-11-30T06:04:29.239Z,34.70
2022-11-30T06:06:56.554Z,32.90
2022-11-30T06:09:23.767Z,31.60
2022-11-30T06:11:51.427Z,33.03
2022-11-30T06:14:18.586Z,34.20
2022-11-30T06:16:45.987Z,29.50
2022-11-30T06:19:13.210Z,34.23
2022-11-30T06:21:40.351Z,32.23
2022-11-30T06:24:07.857Z,32.93
2022-11-30T06:26:34.992Z,35.17
2022-11-30T06:29:02.153Z,31.97
2022-11-30T06:31:31.279Z,32.77
2022-11-30T06:33:58.828Z,33.63
2022-11-30T06:36:28.886Z,31.33
2022-11-30T06:38:59.849Z,32.97
2022-11-30T06:41:27.044Z,32.53
2022-11-30T06:43:54.207Z,36.03
2022-11-30T06:46:22.150Z,36.13
2022-11-30T06:48:50.761Z,36.70
2022-11-30T06:51:18.564Z,36.00
2022-11-30T06:53:46.458Z,35.60
2022-11-30T06:56:13.854Z,33.07
2022-11-30T06:58:41.801Z,30.73
2022-11-30T07:01:12.323Z,33.27
2022-11-30T07:03:40.384Z,33.90
2022-11-30T07:06:10.334Z,32.97
2022-11-30T07:08:38.248Z,35.97
2022-11-30T07:11:06.949Z,34.10
2022-11-30T07:13:34.225Z,33.27
2022-11-30T07:16:05.342Z,33.57
2022-11-30T07:18:33.211Z,32.07
2022-11-30T07:21:01.204Z,34.60
2022-11-30T07:23:52.343Z,34.83
2022-11-30T07:26:23.937Z,32.17
2022-11-30T07:28:54.980Z,31.90
2022-11-30T07:31:27.704Z,33.67
2022-11-30T07:33:56.090Z,32.63
2022-11-30T07:36:25.806Z,35.00
2022-11-30T07:38:52.950Z,34.17
2022-11-30T07:41:20.109Z,35.30
2022-11-30T07:43:47.289Z,32.87
2022-11-30T07:46:16.100Z,33.60
2022-11-30T07:48:44.722Z,33.83
2022-11-30T07:51:22.165Z,33.97
2022-11-30T07:53:50.118Z,32.83
2022-11-30T07:56:19.667Z,31.00
2022-11-30T07:58:48.399Z,32.83
2022-11-30T08:01:21.723Z,35.97
2022-11-30T08:03:50.287Z,35.23
2022-11-30T08:06:20.873Z,34.07
2022-11-30T08:08:50.089Z,34.37
2022-11-30T08:11:20.733Z,38.37
2022-11-30T08:13:48.106Z,36.17
2022-11-30T08:16:21.389Z,36.83
2022-11-30T08:18:49.473Z,33.53
2022-11-30T08:21:19.315Z,31.00
2022-11-30T08:23:49.154Z,30.57
2022-11-30T08:26:21.110Z,29.87
2022-11-30T08:28:51.051Z,30.83
2022-11-30T08:31:21.509Z,31.80
2022-11-30T08:33:48.963Z,34.30
2022-11-30T08:36:21.565Z,33.27
2022-11-30T08:38:49.446Z,33.13
2022-11-30T08:41:19.429Z,28.77
2022-11-30T08:43:47.730Z,29.33
2022-11-30T08:49:22.461Z,29.97
2022-11-30T08:54:42.609Z,30.67
2022-11-30T08:57:09.973Z,30.20
2022-11-30T08:59:37.281Z,30.17
2022-11-30T09:02:04.570Z,30.43
2022-11-30T09:04:31.705Z,33.33
2022-11-30T09:07:00.711Z,31.13
2022-11-30T09:09:28.673Z,28.50
2022-11-30T09:11:55.906Z,28.00
2022-11-30T09:14:23.130Z,26.30
2022-11-30T09:16:50.284Z,25.77
2022-11-30T09:19:17.588Z,27.77
2022-11-30T09:21:51.143Z,27.10
2022-11-30T09:24:19.144Z,26.40
2022-11-30T09:26:46.339Z,26.80
2022-11-30T09:29:13.524Z,25.67
2022-11-30T09:31:40.712Z,27.17
2022-11-30T09:34:10.586Z,26.73
2022-11-30T09:36:37.770Z,28.03
2022-11-30T09:39:05.079Z,24.90
2022-11-30T09:41:53.196Z,25.00
2022-11-30T09:44:35.861Z,25.93
2022-11-30T09:47:08.341Z,26.73
2022-11-30T09:49:40.762Z,30.50
2022-11-30T09:52:14.045Z,27.60
2022-11-30T09:54:43.707Z,28.37
2022-11-30T09:57:13.658Z,27.20
2022-11-30T09:59:48.473Z,26.10
2022-11-30T10:02:18.974Z,25.53
2022-11-30T10:04:46.537Z,26.23
2022-11-30T10:07:36.330Z,26.63
2022-11-30T10:10:30.948Z,26.43
2022-11-30T10:13:24.990Z,27.83
2022-11-30T10:16:16.053Z,26.00
2022-11-30T10:19:06.077Z,27.63
2022-11-30T10:22:01.323Z,25.90
2022-11-30T10:24:56.755Z,27.20
2022-11-30T10:27:50.924Z,25.80
2022-11-30T10:30:23.715Z,25.97
2022-11-30T10:32:55.945Z,25.27
2022-11-30T10:35:39.204Z,23.27
2022-11-30T10:38:36.802Z,25.40
2022-11-30T10:41:14.614Z,23.97
2022-11-30T10:43:44.845Z,28.43
2022-11-30T10:46:24.463Z,23.77
2022-11-30T10:49:08.040Z,25.57
2022-11-30T10:51:38.778Z,21.93
2022-11-30T10:54:18.053Z,24.37
2022-11-30T10:56:45.910Z,25.20
2022-11-30T10:59:23.662Z,23.80
2022-11-30T11:01:53.016Z,21.00
2022-11-30T11:04:25.656Z,22.30
2022-11-30T11:07:09.164Z,24.30
2022-11-30T11:09:46.909Z,22.20
2022-11-30T11:12:27.508Z,23.23
2022-11-30T11:15:17.089Z,20.80
2022-11-30T11:17:44.973Z,21.20
2022-11-30T11:20:44.893Z,21.77
2022-11-30T11:23:45.253Z,20.30
2022-11-30T11:26:18.706Z,19.73
2022-11-30T11:28:49.990Z,23.97
2022-11-30T11:31:50.865Z,26.50
2022-11-30T11:34:32.413Z,22.93
2022-11-30T11:37:07.519Z,24.93
2022-11-30T11:39:34.701Z,26.50
2022-11-30T11:42:03.630Z,27.90
2022-11-30T11:44:31.685Z,25.57
2022-11-30T11:47:02.327Z,29.00
2022-11-30T11:49:37.733Z,27.73
2022-11-30T11:52:05.929Z,26.87
2022-11-30T11:54:55.130Z,26.70
2022-11-30T11:57:28.334Z,26.53
2022-11-30T12:00:02.341Z,24.70
2022-11-30T12:02:52.810Z,24.83
2022-11-30T12:05:24.475Z,23.07
2022-11-30T12:08:05.580Z,21.47
2022-11-30T12:10:53.032Z,20.67
2022-11-30T12:13:27.166Z,19.30
2022-11-30T12:16:05.175Z,21.70
2022-11-30T12:19:07.699Z,23.47
2022-11-30T12:21:53.586Z,26.03
2022-11-30T12:24:20.695Z,23.10
2022-11-30T12:26:58.403Z,23.63
2022-11-30T12:29:34.351Z,22.60
2022-11-30T12:32:23.014Z,22.73
2022-11-30T12:35:11.218Z,19.17
2022-11-30T12:37:47.167Z,19.33
2022-11-30T12:40:32.826Z,20.77
2022-11-30T12:43:22.583Z,21.67
2022-11-30T12:45:55.936Z,21.73
2022-11-30T12:48:25.884Z,23.63
2022-11-30T12:51:07.890Z,21.10
2022-11-30T12:53:53.750Z,21.13
2022-11-30T12:56:31.079Z,21.90
2022-11-30T12:59:31.941Z,21.27
2022-11-30T13:02:18.034Z,20.77
2022-11-30T13:04:58.237Z,22.97
2022-11-30T13:07:29.016Z,39.93
2022-11-30T13:10:12.470Z,23.93
2022-11-30T13:12:44.989Z,37.30
2022-11-30T13:15:31.139Z,25.30
2022-11-30T13:17:58.741Z,23.57
2022-11-30T13:20:51.608Z,20.17
2022-11-30T13:23:36.031Z,19.23
2022-11-30T13:26:25.989Z,19.60
2022-11-30T13:29:03.980Z,20.77
2022-11-30T13:31:40.418Z,20.43
2022-11-30T13:34:27.407Z,21.83
2022-11-30T13:37:23.098Z,19.10
2022-11-30T13:39:57.410Z,17.77
2022-11-30T13:42:35.673Z,21.37
2022-11-30T13:45:11.865Z,18.67
2022-11-30T13:48:00.712Z,21.83
2022-11-30T13:50:37.091Z,26.03
2022-11-30T13:53:04.295Z,25.67
2022-11-30T13:55:49.619Z,23.57
2022-11-30T13:58:19.454Z,24.60
2022-11-30T14:01:18.587Z,26.27
2022-11-30T14:04:14.399Z,23.73
2022-11-30T14:06:41.568Z,24.27
2022-11-30T14:09:35.773Z,23.30
2022-11-30T14:12:30.974Z,24.23
2022-11-30T14:14:59.255Z,25.13
2022-11-30T14:17:28.301Z,25.20
2022-11-30T14:20:07.225Z,23.30
2022-11-30T14:22:34.965Z,27.97
2022-11-30T14:25:02.922Z,23.77
2022-11-30T14:27:30.989Z,24.63
2022-11-30T14:30:03.073Z,26.40
2022-11-30T14:32:35.228Z,27.57
2022-11-30T14:35:09.305Z,27.20
2022-11-30T14:37:43.701Z,26.50
2022-11-30T14:40:19.129Z,27.10
2022-11-30T14:42:49.599Z,31.03
2022-11-30T14:45:35.302Z,27.83
2022-11-30T14:48:13.938Z,29.30
2022-11-30T14:50:51.518Z,27.17
2022-11-30T14:53:34.158Z,28.67
2022-11-30T14:56:24.457Z,31.40
2022-11-30T14:59:23.050Z,29.77
2022-11-30T15:01:59.860Z,28.77
2022-11-30T15:04:29.058Z,29.03
2022-11-30T15:06:57.278Z,29.03
2022-11-30T15:09:28.128Z,29.10
2022-11-30T15:11:56.113Z,30.23
2022-11-30T15:14:24.282Z,28.57
2022-11-30T15:16:54.693Z,28.43
2022-11-30T15:19:29.043Z,28.40
2022-11-30T15:21:57.879Z,29.17
2022-11-30T15:24:26.484Z,27.57
2022-11-30T15:27:14.042Z,31.90
2022-11-30T15:29:46.856Z,28.80
2022-11-30T15:32:20.111Z,29.03
2022-11-30T15:34:52.220Z,29.63
2022-11-30T15:37:29.451Z,30.60
2022-11-30T15:39:59.648Z,28.60
2022-11-30T15:42:40.957Z,28.07
2022-11-30T15:45:26.125Z,62.13
2022-11-30T15:47:55.041Z,47.93
2022-11-30T15:50:31.121Z,31.40
2022-11-30T15:53:20.245Z,38.17
2022-11-30T15:55:49.668Z,57.17
2022-11-30T15:59:00.633Z,30.87
2022-11-30T16:01:28.690Z,30.73
2022-11-30T16:03:55.943Z,32.43
2022-11-30T16:06:44.052Z,36.30
2022-11-30T16:09:32.239Z,27.23
2022-11-30T16:12:01.740Z,34.13
2022-11-30T16:14:28.998Z,29.13
2022-11-30T16:16:56.762Z,29.13
2022-11-30T16:19:23.990Z,30.27
2022-11-30T16:21:51.235Z,29.10
2022-11-30T16:24:18.565Z,27.60
2022-11-30T16:26:51.294Z,27.90
2022-11-30T16:29:19.567Z,27.93
2022-11-30T16:31:46.777Z,29.87
2022-11-30T16:34:14.026Z,29.50
2022-11-30T16:36:41.227Z,27.30
2022-11-30T16:39:12.264Z,28.30
2022-11-30T16:41:39.709Z,29.40
2022-11-30T16:44:13.398Z,25.87
2022-11-30T16:46:40.656Z,24.87
2022-11-30T16:49:08.687Z,27.13
2022-11-30T16:51:36.313Z,27.23
2022-11-30T16:54:03.838Z,28.57
2022-11-30T16:56:31.079Z,24.47
2022-11-30T16:58:58.222Z,26.67
2022-11-30T17:01:44.727Z,27.37
2022-11-30T17:04:23.879Z,26.80
2022-11-30T17:06:53.779Z,27.27
2022-11-30T17:09:24.670Z,29.63
2022-11-30T17:11:51.921Z,27.07
2022-11-30T17:14:20.989Z,27.13
2022-11-30T17:16:48.238Z,28.00
2022-11-30T17:19:15.482Z,40.97
2022-11-30T17:21:44.376Z,46.40
2022-11-30T17:24:12.809Z,27.77
2022-11-30T17:26:40.417Z,25.30
2022-11-30T17:29:07.678Z,25.27
2022-11-30T17:31:35.531Z,24.93
2022-11-30T17:34:03.530Z,23.97
2022-11-30T17:36:30.793Z,26.33
2022-11-30T17:38:57.969Z,29.97
2022-11-30T17:41:25.135Z,26.77
2022-11-30T17:43:52.319Z,27.53
2022-11-30T17:46:20.944Z,25.87
2022-11-30T17:48:49.606Z,27.33
2022-11-30T17:51:17.063Z,28.37
2022-11-30T17:53:44.652Z,31.57
2022-11-30T17:56:17.090Z,30.60
2022-11-30T17:58:46.071Z,28.90
2022-11-30T18:01:33.520Z,27.07
2022-11-30T18:04:00.943Z,27.90
2022-11-30T18:06:28.898Z,28.23
2022-11-30T18:08:57.523Z,29.43
2022-11-30T18:11:26.028Z,28.57
2022-11-30T18:13:55.321Z,32.73
2022-11-30T18:16:28.062Z,30.50
2022-11-30T18:18:57.240Z,30.80
2022-11-30T18:21:27.716Z,30.87
2022-11-30T18:23:55.245Z,29.17
2022-11-30T18:26:24.168Z,31.70
2022-11-30T18:29:01.556Z,31.30
2022-11-30T18:31:30.625Z,31.17
2022-11-30T18:33:59.636Z,32.27
2022-11-30T18:36:27.505Z,30.67
2022-11-30T18:38:55.002Z,30.23
2022-11-30T18:41:24.067Z,29.20
2022-11-30T18:43:51.351Z,30.33
2022-11-30T18:46:18.560Z,31.40
2022-11-30T18:48:49.009Z,32.77
2022-11-30T18:51:22.040Z,31.57
2022-11-30T18:53:49.443Z,30.57
2022-11-30T18:56:19.519Z,35.77
2022-11-30T18:58:47.774Z,34.60
2022-11-30T19:01:20.250Z,33.90
2022-11-30T19:03:55.598Z,32.73
2022-11-30T19:06:25.169Z,33.17
2022-11-30T19:08:52.320Z,33.53
2022-11-30T19:11:19.597Z,31.53
2022-11-30T19:13:46.778Z,34.17
2022-11-30T19:16:16.405Z,33.17
2022-11-30T19:18:46.683Z,32.10
2022-11-30T19:21:16.165Z,33.67
2022-11-30T19:23:43.574Z,32.93
2022-11-30T19:26:11.345Z,31.23
2022-11-30T19:28:39.817Z,35.17
2022-11-30T19:31:12.691Z,34.67
2022-11-30T19:33:41.265Z,36.70
2022-11-30T19:36:23.622Z,36.67
2022-11-30T19:38:51.425Z,39.80
2022-11-30T19:41:20.115Z,35.57
2022-11-30T19:43:53.966Z,34.37
2022-11-30T19:46:24.636Z,37.40
2022-11-30T19:48:57.842Z,36.10
2022-11-30T19:51:25.002Z,35.00
2022-11-30T19:53:55.489Z,34.20
2022-11-30T19:56:23.601Z,36.90
2022-11-30T19:58:51.132Z,37.00
2022-11-30T20:01:23.981Z,33.93
2022-11-30T20:03:52.795Z,38.33
2022-11-30T20:06:23.477Z,37.83
2022-11-30T20:08:50.632Z,36.00
2022-11-30T20:11:17.767Z,35.20
2022-11-30T20:13:45.868Z,38.50
2022-11-30T20:16:16.095Z,35.43
2022-11-30T20:18:46.559Z,37.60
2022-11-30T20:21:17.792Z,36.40
2022-11-30T20:23:46.960Z,36.70
2022-11-30T20:26:20.028Z,35.77
2022-11-30T20:28:48.953Z,35.97
2022-11-30T20:31:18.387Z,41.13
2022-11-30T20:33:45.873Z,38.17
2022-11-30T20:36:15.700Z,38.40
2022-11-30T20:38:42.927Z,37.97
2022-11-30T20:41:16.009Z,37.27
2022-11-30T20:43:43.628Z,37.53
2022-11-30T20:46:19.509Z,37.63
2022-11-30T20:48:47.813Z,37.60
2022-11-30T20:51:32.515Z,40.10
2022-11-30T20:54:06.721Z,39.67
2022-11-30T20:56:38.023Z,38.87
2022-11-30T20:59:08.180Z,36.80
2022-11-30T21:01:35.872Z,40.80
2022-11-30T21:04:03.159Z,38.70
2022-11-30T21:06:30.585Z,39.20
2022-11-30T21:08:58.657Z,37.40
2022-11-30T21:11:27.398Z,39.10
2022-11-30T21:13:55.175Z,37.27
2022-11-30T21:16:28.104Z,37.97
2022-11-30T21:18:58.211Z,40.73
2022-11-30T21:21:27.939Z,39.43
2022-11-30T21:23:56.831Z,37.87
2022-11-30T21:26:27.056Z,36.53
2022-11-30T21:28:58.213Z,37.03
2022-11-30T21:31:25.663Z,38.13
2022-11-30T21:33:53.932Z,38.07
2022-11-30T21:36:22.464Z,37.93
2022-11-30T21:39:04.462Z,38.33
2022-11-30T21:41:33.769Z,40.93
2022-11-30T21:44:01.162Z,40.77
2022-11-30T21:46:28.423Z,39.70
2022-11-30T21:48:55.883Z,40.17
2022-11-30T21:51:25.225Z,38.50
2022-11-30T21:54:00.644Z,39.07
2022-11-30T21:56:30.825Z,39.73
2022-11-30T21:58:58.421Z,39.27
2022-11-30T22:01:29.135Z,40.97
2022-11-30T22:03:58.186Z,39.77
2022-11-30T22:06:26.486Z,42.50
2022-11-30T22:09:02.906Z,38.83
2022-11-30T22:11:30.992Z,40.27
2022-11-30T22:13:58.380Z,38.63
2022-11-30T22:16:32.456Z,42.00
2022-11-30T22:19:05.297Z,43.27
2022-11-30T22:21:33.806Z,40.87
2022-11-30T22:24:03.887Z,42.20
2022-11-30T22:26:33.678Z,38.07
2022-11-30T22:29:15.978Z,42.80
2022-11-30T22:31:45.943Z,41.50
2022-11-30T22:34:13.719Z,43.40
2022-11-30T22:36:42.802Z,43.23
2022-11-30T22:39:18.253Z,44.13
2022-11-30T22:41:49.960Z,42.97
2022-11-30T22:44:21.919Z,39.43
2022-11-30T22:46:49.303Z,41.90
2022-11-30T22:49:21.163Z,42.83
2022-11-30T22:51:50.089Z,41.83
2022-11-30T22:54:18.398Z,43.90
2022-11-30T22:56:46.695Z,43.40
2022-11-30T22:59:15.181Z,40.03
2022-11-30T23:01:45.543Z,38.93
2022-11-30T23:04:18.385Z,39.90
2022-11-30T23:06:47.374Z,41.43
2022-11-30T23:09:17.692Z,41.23
2022-11-30T23:11:45.328Z,39.13
2022-11-30T23:14:13.232Z,42.63
2022-11-30T23:16:40.687Z,41.63
2022-11-30T23:19:08.953Z,44.17
2022-11-30T23:21:41.780Z,45.03
2022-11-30T23:24:13.927Z,43.47
2022-11-30T23:26:41.957Z,41.70
2022-11-30T23:29:12.899Z,45.10
2022-11-30T23:31:42.203Z,43.93
2022-11-30T23:34:12.607Z,42.43
2022-11-30T23:36:39.822Z,44.40
2022-11-30T23:39:09.347Z,46.87
2022-11-30T23:41:36.510Z,44.93
2022-11-30T23:44:04.418Z,51.13
2022-11-30T23:46:31.595Z,48.23
2022-11-30T23:48:58.841Z,47.10
2022-11-30T23:51:26.535Z,48.07
2022-11-30T23:53:54.078Z,47.53
2022-11-30T23:56:23.170Z,45.50
2022-11-30T23:58:50.791Z,46.50
